Rechercher aéroport 
image banner adimage banner adimage banner ad
image banner ad

CN18 - San Bernardino Community Hospital

Situé à San Bernardino, United States

ICAO - CN18, IATA -

Données fournies par Airmate  

Information générale

Coordonnées: N34°7'50" W117°19'18"
Élévation : 1213 feet MSL.
 
Voir autres Aéroports à California

Données opérationnelles

Special qualification required
Heure actuelle UTC:
Heure actuelle locale:
Météo à : KSBD - San Bernardino Intl ( 9 km )
METAR: KSBD 251457Z 00000KT 5SM HZ SCT150 21/15 A3001
TAF: KSBD 251141Z 2512/2612 VRB05KT P6SM BKN120 FM252100 26011KT P6SM BKN120 FM260400 VRB05KT P6SM BKN120 FM260600 VRB05KT P6SM VCSH BKN010 BKN100
Voir NOTAMs / SUP AIP / TFR affectant cet aéroport [VIEW]
Fréquences de communication: [VIEW]

Pistes:

Coordonnées de l'aéroport

Adresse: San Bernardino United States

Vue satellite de CN18